sensor_id;sensor_type;location;lat;lon;timestamp;temperature;humidity
9837;DHT22;4957;51.412;6.724;2022-07-06T00:01:23;19.90;43.80
9837;DHT22;4957;51.412;6.724;2022-07-06T00:03:49;19.90;44.00
9837;DHT22;4957;51.412;6.724;2022-07-06T00:06:15;19.80;44.00
9837;DHT22;4957;51.412;6.724;2022-07-06T00:08:42;19.80;43.80
9837;DHT22;4957;51.412;6.724;2022-07-06T00:11:08;19.70;43.80
9837;DHT22;4957;51.412;6.724;2022-07-06T00:13:34;19.60;44.00
9837;DHT22;4957;51.412;6.724;2022-07-06T00:16:00;19.60;44.20
9837;DHT22;4957;51.412;6.724;2022-07-06T00:18:26;19.50;43.70
9837;DHT22;4957;51.412;6.724;2022-07-06T00:20:52;19.50;44.40
9837;DHT22;4957;51.412;6.724;2022-07-06T00:23:17;19.40;44.50
9837;DHT22;4957;51.412;6.724;2022-07-06T00:25:43;19.30;44.10
9837;DHT22;4957;51.412;6.724;2022-07-06T00:28:09;19.30;44.70
9837;DHT22;4957;51.412;6.724;2022-07-06T00:30:35;19.20;44.70
9837;DHT22;4957;51.412;6.724;2022-07-06T00:33:00;19.10;44.60
9837;DHT22;4957;51.412;6.724;2022-07-06T00:35:26;19.10;44.80
9837;DHT22;4957;51.412;6.724;2022-07-06T00:37:52;19.00;44.40
9837;DHT22;4957;51.412;6.724;2022-07-06T00:40:18;18.90;44.60
9837;DHT22;4957;51.412;6.724;2022-07-06T00:42:47;18.90;44.90
9837;DHT22;4957;51.412;6.724;2022-07-06T00:45:15;18.80;45.20
9837;DHT22;4957;51.412;6.724;2022-07-06T00:47:42;18.80;45.20
9837;DHT22;4957;51.412;6.724;2022-07-06T00:50:10;18.70;45.50
9837;DHT22;4957;51.412;6.724;2022-07-06T00:53:02;18.70;45.30
9837;DHT22;4957;51.412;6.724;2022-07-06T00:55:31;18.70;45.80
9837;DHT22;4957;51.412;6.724;2022-07-06T00:57:57;18.60;45.80
9837;DHT22;4957;51.412;6.724;2022-07-06T01:00:25;18.50;45.60
9837;DHT22;4957;51.412;6.724;2022-07-06T01:02:52;18.50;45.70
9837;DHT22;4957;51.412;6.724;2022-07-06T01:05:18;18.40;45.50
9837;DHT22;4957;51.412;6.724;2022-07-06T01:07:46;18.40;45.60
9837;DHT22;4957;51.412;6.724;2022-07-06T01:10:13;18.40;46.20
9837;DHT22;4957;51.412;6.724;2022-07-06T01:12:41;18.30;46.10
9837;DHT22;4957;51.412;6.724;2022-07-06T01:15:10;18.20;46.20
9837;DHT22;4957;51.412;6.724;2022-07-06T01:17:38;18.20;46.20
9837;DHT22;4957;51.412;6.724;2022-07-06T01:20:17;18.20;46.40
9837;DHT22;4957;51.412;6.724;2022-07-06T01:22:43;18.10;46.70
9837;DHT22;4957;51.412;6.724;2022-07-06T01:25:10;18.10;46.40
9837;DHT22;4957;51.412;6.724;2022-07-06T01:27:38;18.00;46.00
9837;DHT22;4957;51.412;6.724;2022-07-06T01:30:14;17.90;47.00
9837;DHT22;4957;51.412;6.724;2022-07-06T01:32:41;18.00;47.30
9837;DHT22;4957;51.412;6.724;2022-07-06T01:35:09;17.90;46.90
9837;DHT22;4957;51.412;6.724;2022-07-06T01:37:35;17.90;47.00
9837;DHT22;4957;51.412;6.724;2022-07-06T01:40:04;17.90;47.10
9837;DHT22;4957;51.412;6.724;2022-07-06T01:42:30;17.80;47.20
9837;DHT22;4957;51.412;6.724;2022-07-06T01:44:56;17.80;47.00
9837;DHT22;4957;51.412;6.724;2022-07-06T01:47:22;17.80;47.00
9837;DHT22;4957;51.412;6.724;2022-07-06T01:49:48;17.70;47.20
9837;DHT22;4957;51.412;6.724;2022-07-06T01:52:13;17.70;47.10
9837;DHT22;4957;51.412;6.724;2022-07-06T01:54:39;17.70;47.60
9837;DHT22;4957;51.412;6.724;2022-07-06T01:57:05;17.70;47.90
9837;DHT22;4957;51.412;6.724;2022-07-06T01:59:30;17.70;47.60
9837;DHT22;4957;51.412;6.724;2022-07-06T02:01:56;17.60;47.30
9837;DHT22;4957;51.412;6.724;2022-07-06T02:04:22;17.60;47.70
9837;DHT22;4957;51.412;6.724;2022-07-06T02:06:47;17.60;47.80
9837;DHT22;4957;51.412;6.724;2022-07-06T02:09:13;17.60;48.10
9837;DHT22;4957;51.412;6.724;2022-07-06T02:11:39;17.50;47.70
9837;DHT22;4957;51.412;6.724;2022-07-06T02:14:05;17.50;48.30
9837;DHT22;4957;51.412;6.724;2022-07-06T02:16:31;17.50;48.10
9837;DHT22;4957;51.412;6.724;2022-07-06T02:18:56;17.40;48.30
9837;DHT22;4957;51.412;6.724;2022-07-06T02:21:22;17.40;48.10
9837;DHT22;4957;51.412;6.724;2022-07-06T02:23:48;17.40;48.20
9837;DHT22;4957;51.412;6.724;2022-07-06T02:26:13;17.30;48.30
9837;DHT22;4957;51.412;6.724;2022-07-06T02:28:39;17.30;48.40
9837;DHT22;4957;51.412;6.724;2022-07-06T02:31:05;17.30;48.30
9837;DHT22;4957;51.412;6.724;2022-07-06T02:33:31;17.20;48.40
9837;DHT22;4957;51.412;6.724;2022-07-06T02:35:56;17.20;48.00
9837;DHT22;4957;51.412;6.724;2022-07-06T02:38:22;17.10;48.70
9837;DHT22;4957;51.412;6.724;2022-07-06T02:40:48;17.10;48.90
9837;DHT22;4957;51.412;6.724;2022-07-06T02:43:13;17.10;48.70
9837;DHT22;4957;51.412;6.724;2022-07-06T02:45:39;17.10;48.90
9837;DHT22;4957;51.412;6.724;2022-07-06T02:48:05;17.10;49.30
9837;DHT22;4957;51.412;6.724;2022-07-06T02:50:31;17.10;49.20
9837;DHT22;4957;51.412;6.724;2022-07-06T02:52:57;17.00;49.20
9837;DHT22;4957;51.412;6.724;2022-07-06T02:55:24;16.90;49.20
9837;DHT22;4957;51.412;6.724;2022-07-06T02:57:49;16.90;48.80
9837;DHT22;4957;51.412;6.724;2022-07-06T03:00:16;16.90;49.10
9837;DHT22;4957;51.412;6.724;2022-07-06T03:02:42;16.80;49.20
9837;DHT22;4957;51.412;6.724;2022-07-06T03:05:08;16.80;49.20
9837;DHT22;4957;51.412;6.724;2022-07-06T03:07:33;16.80;49.50
9837;DHT22;4957;51.412;6.724;2022-07-06T03:09:59;16.70;49.40
9837;DHT22;4957;51.412;6.724;2022-07-06T03:12:25;16.70;49.00
9837;DHT22;4957;51.412;6.724;2022-07-06T03:14:51;16.60;49.60
9837;DHT22;4957;51.412;6.724;2022-07-06T03:17:16;16.60;49.60
9837;DHT22;4957;51.412;6.724;2022-07-06T03:19:42;16.50;49.60
9837;DHT22;4957;51.412;6.724;2022-07-06T03:22:08;16.50;50.30
9837;DHT22;4957;51.412;6.724;2022-07-06T03:24:33;16.50;50.20
9837;DHT22;4957;51.412;6.724;2022-07-06T03:26:59;16.50;50.40
9837;DHT22;4957;51.412;6.724;2022-07-06T03:29:25;16.40;50.20
9837;DHT22;4957;51.412;6.724;2022-07-06T03:31:50;16.40;50.30
9837;DHT22;4957;51.412;6.724;2022-07-06T03:34:16;16.40;50.80
9837;DHT22;4957;51.412;6.724;2022-07-06T03:36:41;16.40;50.20
9837;DHT22;4957;51.412;6.724;2022-07-06T03:39:07;16.40;50.50
9837;DHT22;4957;51.412;6.724;2022-07-06T03:41:33;16.30;50.50
9837;DHT22;4957;51.412;6.724;2022-07-06T03:43:59;16.30;50.50
9837;DHT22;4957;51.412;6.724;2022-07-06T03:46:24;16.30;50.40
9837;DHT22;4957;51.412;6.724;2022-07-06T03:48:50;16.20;50.30
9837;DHT22;4957;51.412;6.724;2022-07-06T03:51:16;16.20;50.40
9837;DHT22;4957;51.412;6.724;2022-07-06T03:53:42;16.10;50.80
9837;DHT22;4957;51.412;6.724;2022-07-06T03:56:08;16.10;51.30
9837;DHT22;4957;51.412;6.724;2022-07-06T03:58:52;16.10;51.60
9837;DHT22;4957;51.412;6.724;2022-07-06T04:01:18;16.10;51.70
9837;DHT22;4957;51.412;6.724;2022-07-06T04:03:43;16.10;51.40
9837;DHT22;4957;51.412;6.724;2022-07-06T04:06:10;16.10;51.70
9837;DHT22;4957;51.412;6.724;2022-07-06T04:08:36;16.10;52.20
9837;DHT22;4957;51.412;6.724;2022-07-06T04:11:02;16.10;52.30
9837;DHT22;4957;51.412;6.724;2022-07-06T04:13:27;16.10;52.00
9837;DHT22;4957;51.412;6.724;2022-07-06T04:15:53;16.10;52.20
9837;DHT22;4957;51.412;6.724;2022-07-06T04:18:18;16.10;51.70
9837;DHT22;4957;51.412;6.724;2022-07-06T04:20:44;16.00;53.10
9837;DHT22;4957;51.412;6.724;2022-07-06T04:23:10;16.10;52.20
9837;DHT22;4957;51.412;6.724;2022-07-06T04:25:36;16.00;52.10
9837;DHT22;4957;51.412;6.724;2022-07-06T04:28:01;16.00;52.20
9837;DHT22;4957;51.412;6.724;2022-07-06T04:30:27;16.00;52.10
9837;DHT22;4957;51.412;6.724;2022-07-06T04:32:53;16.10;52.70
9837;DHT22;4957;51.412;6.724;2022-07-06T04:35:20;16.00;53.10
9837;DHT22;4957;51.412;6.724;2022-07-06T04:37:46;16.00;52.90
9837;DHT22;4957;51.412;6.724;2022-07-06T04:40:13;16.00;53.00
9837;DHT22;4957;51.412;6.724;2022-07-06T04:42:39;16.00;52.90
9837;DHT22;4957;51.412;6.724;2022-07-06T04:45:05;16.00;52.90
9837;DHT22;4957;51.412;6.724;2022-07-06T04:47:31;16.00;53.00
9837;DHT22;4957;51.412;6.724;2022-07-06T04:49:57;16.00;53.40
9837;DHT22;4957;51.412;6.724;2022-07-06T04:52:23;16.00;53.40
9837;DHT22;4957;51.412;6.724;2022-07-06T04:54:48;16.00;53.40
9837;DHT22;4957;51.412;6.724;2022-07-06T04:57:14;16.00;53.40
9837;DHT22;4957;51.412;6.724;2022-07-06T04:59:40;16.10;53.90
9837;DHT22;4957;51.412;6.724;2022-07-06T05:02:06;16.10;53.70
9837;DHT22;4957;51.412;6.724;2022-07-06T05:04:31;16.10;54.40
9837;DHT22;4957;51.412;6.724;2022-07-06T05:06:58;16.10;53.90
9837;DHT22;4957;51.412;6.724;2022-07-06T05:09:24;16.10;54.00
9837;DHT22;4957;51.412;6.724;2022-07-06T05:11:49;16.10;54.30
9837;DHT22;4957;51.412;6.724;2022-07-06T05:14:15;16.10;54.50
9837;DHT22;4957;51.412;6.724;2022-07-06T05:16:41;16.10;54.20
9837;DHT22;4957;51.412;6.724;2022-07-06T05:19:06;16.20;54.60
9837;DHT22;4957;51.412;6.724;2022-07-06T05:21:32;16.20;54.60
9837;DHT22;4957;51.412;6.724;2022-07-06T05:23:58;16.20;54.30
9837;DHT22;4957;51.412;6.724;2022-07-06T05:26:24;16.20;54.90
9837;DHT22;4957;51.412;6.724;2022-07-06T05:28:49;16.30;54.60
9837;DHT22;4957;51.412;6.724;2022-07-06T05:31:15;16.30;55.00
9837;DHT22;4957;51.412;6.724;2022-07-06T05:33:41;16.40;55.10
9837;DHT22;4957;51.412;6.724;2022-07-06T05:36:07;16.40;55.30
9837;DHT22;4957;51.412;6.724;2022-07-06T05:38:33;16.50;55.00
9837;DHT22;4957;51.412;6.724;2022-07-06T05:40:59;16.50;55.60
9837;DHT22;4957;51.412;6.724;2022-07-06T05:43:24;16.60;55.20
9837;DHT22;4957;51.412;6.724;2022-07-06T05:45:50;16.60;55.80
9837;DHT22;4957;51.412;6.724;2022-07-06T05:48:16;16.70;55.80
9837;DHT22;4957;51.412;6.724;2022-07-06T05:51:01;16.80;55.00
9837;DHT22;4957;51.412;6.724;2022-07-06T05:53:26;16.80;54.80
9837;DHT22;4957;51.412;6.724;2022-07-06T05:55:52;16.90;55.30
9837;DHT22;4957;51.412;6.724;2022-07-06T05:58:18;16.90;54.50
9837;DHT22;4957;51.412;6.724;2022-07-06T06:00:45;17.00;54.80
9837;DHT22;4957;51.412;6.724;2022-07-06T06:03:11;17.00;55.20
9837;DHT22;4957;51.412;6.724;2022-07-06T06:05:36;17.10;55.10
9837;DHT22;4957;51.412;6.724;2022-07-06T06:08:02;17.10;55.50
9837;DHT22;4957;51.412;6.724;2022-07-06T06:10:28;17.20;54.30
9837;DHT22;4957;51.412;6.724;2022-07-06T06:12:54;17.30;54.40
9837;DHT22;4957;51.412;6.724;2022-07-06T06:15:20;17.30;53.90
9837;DHT22;4957;51.412;6.724;2022-07-06T06:17:46;17.40;53.80
9837;DHT22;4957;51.412;6.724;2022-07-06T06:20:13;17.50;54.50
9837;DHT22;4957;51.412;6.724;2022-07-06T06:22:57;17.60;54.80
9837;DHT22;4957;51.412;6.724;2022-07-06T06:25:34;17.60;55.10
9837;DHT22;4957;51.412;6.724;2022-07-06T06:28:02;17.70;55.20
9837;DHT22;4957;51.412;6.724;2022-07-06T06:30:28;17.80;54.30
9837;DHT22;4957;51.412;6.724;2022-07-06T06:33:17;17.80;54.10
9837;DHT22;4957;51.412;6.724;2022-07-06T06:35:48;17.90;55.20
9837;DHT22;4957;51.412;6.724;2022-07-06T06:38:14;18.00;54.60
9837;DHT22;4957;51.412;6.724;2022-07-06T06:40:41;18.00;54.10
9837;DHT22;4957;51.412;6.724;2022-07-06T06:43:07;18.10;54.20
9837;DHT22;4957;51.412;6.724;2022-07-06T06:45:33;18.10;53.60
9837;DHT22;4957;51.412;6.724;2022-07-06T06:47:58;18.20;54.10
9837;DHT22;4957;51.412;6.724;2022-07-06T06:50:24;18.30;54.40
9837;DHT22;4957;51.412;6.724;2022-07-06T06:52:51;18.40;53.80
9837;DHT22;4957;51.412;6.724;2022-07-06T06:55:17;18.50;54.10
9837;DHT22;4957;51.412;6.724;2022-07-06T06:57:43;18.50;53.50
9837;DHT22;4957;51.412;6.724;2022-07-06T07:00:09;18.60;53.30
9837;DHT22;4957;51.412;6.724;2022-07-06T07:02:35;18.60;53.70
9837;DHT22;4957;51.412;6.724;2022-07-06T07:05:01;18.70;53.50
9837;DHT22;4957;51.412;6.724;2022-07-06T07:07:27;18.80;53.40
9837;DHT22;4957;51.412;6.724;2022-07-06T07:09:53;18.80;52.90
9837;DHT22;4957;51.412;6.724;2022-07-06T07:12:18;19.00;53.30
9837;DHT22;4957;51.412;6.724;2022-07-06T07:14:44;19.00;52.90
9837;DHT22;4957;51.412;6.724;2022-07-06T07:17:10;19.10;52.90
9837;DHT22;4957;51.412;6.724;2022-07-06T07:19:37;19.20;52.90
9837;DHT22;4957;51.412;6.724;2022-07-06T07:22:03;19.30;52.60
9837;DHT22;4957;51.412;6.724;2022-07-06T07:24:28;19.30;51.90
9837;DHT22;4957;51.412;6.724;2022-07-06T07:26:54;19.40;52.20
9837;DHT22;4957;51.412;6.724;2022-07-06T07:29:20;19.50;51.70
9837;DHT22;4957;51.412;6.724;2022-07-06T07:31:46;19.60;51.80
9837;DHT22;4957;51.412;6.724;2022-07-06T07:34:11;19.70;51.90
9837;DHT22;4957;51.412;6.724;2022-07-06T07:36:37;19.80;51.90
9837;DHT22;4957;51.412;6.724;2022-07-06T07:39:03;19.90;50.80
9837;DHT22;4957;51.412;6.724;2022-07-06T07:41:29;20.00;51.40
9837;DHT22;4957;51.412;6.724;2022-07-06T07:43:55;20.10;50.70
9837;DHT22;4957;51.412;6.724;2022-07-06T07:46:20;20.20;51.30
9837;DHT22;4957;51.412;6.724;2022-07-06T07:48:46;20.30;50.40
9837;DHT22;4957;51.412;6.724;2022-07-06T07:51:12;20.40;50.60
9837;DHT22;4957;51.412;6.724;2022-07-06T07:53:38;20.50;50.40
9837;DHT22;4957;51.412;6.724;2022-07-06T07:56:03;20.60;50.90
9837;DHT22;4957;51.412;6.724;2022-07-06T07:58:29;20.70;50.60
9837;DHT22;4957;51.412;6.724;2022-07-06T08:00:55;20.80;50.50
9837;DHT22;4957;51.412;6.724;2022-07-06T08:03:21;20.90;49.80
9837;DHT22;4957;51.412;6.724;2022-07-06T08:05:46;20.90;50.00
9837;DHT22;4957;51.412;6.724;2022-07-06T08:08:14;21.00;49.60
9837;DHT22;4957;51.412;6.724;2022-07-06T08:10:39;21.10;49.70
9837;DHT22;4957;51.412;6.724;2022-07-06T08:13:05;21.20;49.80
9837;DHT22;4957;51.412;6.724;2022-07-06T08:15:33;21.30;49.90
9837;DHT22;4957;51.412;6.724;2022-07-06T08:17:59;21.40;49.30
9837;DHT22;4957;51.412;6.724;2022-07-06T08:20:25;21.60;49.20
9837;DHT22;4957;51.412;6.724;2022-07-06T08:22:51;21.70;48.80
9837;DHT22;4957;51.412;6.724;2022-07-06T08:25:17;21.90;48.60
9837;DHT22;4957;51.412;6.724;2022-07-06T08:27:43;22.10;48.50
9837;DHT22;4957;51.412;6.724;2022-07-06T08:30:09;22.30;48.20
9837;DHT22;4957;51.412;6.724;2022-07-06T08:32:39;22.50;47.80
9837;DHT22;4957;51.412;6.724;2022-07-06T08:35:06;22.80;47.60
9837;DHT22;4957;51.412;6.724;2022-07-06T08:37:31;23.00;47.00
9837;DHT22;4957;51.412;6.724;2022-07-06T08:39:57;23.30;46.80
9837;DHT22;4957;51.412;6.724;2022-07-06T08:42:33;23.60;46.20
9837;DHT22;4957;51.412;6.724;2022-07-06T08:45:00;23.90;45.70
9837;DHT22;4957;51.412;6.724;2022-07-06T08:47:28;24.20;45.20
9837;DHT22;4957;51.412;6.724;2022-07-06T08:49:54;24.50;44.60
9837;DHT22;4957;51.412;6.724;2022-07-06T08:52:22;24.80;44.00
9837;DHT22;4957;51.412;6.724;2022-07-06T08:54:48;25.10;43.40
9837;DHT22;4957;51.412;6.724;2022-07-06T08:57:14;25.40;43.00
9837;DHT22;4957;51.412;6.724;2022-07-06T08:59:40;25.60;42.60
9837;DHT22;4957;51.412;6.724;2022-07-06T09:02:06;25.80;42.10
9837;DHT22;4957;51.412;6.724;2022-07-06T09:04:36;26.00;41.50
9837;DHT22;4957;51.412;6.724;2022-07-06T09:07:02;26.30;40.80
9837;DHT22;4957;51.412;6.724;2022-07-06T09:09:30;26.50;40.20
9837;DHT22;4957;51.412;6.724;2022-07-06T09:11:59;26.70;39.50
9837;DHT22;4957;51.412;6.724;2022-07-06T09:14:24;26.80;39.10
9837;DHT22;4957;51.412;6.724;2022-07-06T09:17:05;27.00;38.80
9837;DHT22;4957;51.412;6.724;2022-07-06T09:19:32;27.10;38.10
9837;DHT22;4957;51.412;6.724;2022-07-06T09:21:59;27.20;38.10
9837;DHT22;4957;51.412;6.724;2022-07-06T09:24:24;27.20;37.70
9837;DHT22;4957;51.412;6.724;2022-07-06T09:26:56;27.30;37.60
9837;DHT22;4957;51.412;6.724;2022-07-06T09:29:32;27.30;37.30
9837;DHT22;4957;51.412;6.724;2022-07-06T09:32:03;27.30;36.90
9837;DHT22;4957;51.412;6.724;2022-07-06T09:34:44;27.40;36.90
9837;DHT22;4957;51.412;6.724;2022-07-06T09:37:10;27.50;36.70
9837;DHT22;4957;51.412;6.724;2022-07-06T09:39:36;27.50;36.50
9837;DHT22;4957;51.412;6.724;2022-07-06T09:42:03;27.70;36.20
9837;DHT22;4957;51.412;6.724;2022-07-06T09:44:31;27.80;35.20
9837;DHT22;4957;51.412;6.724;2022-07-06T09:47:00;27.90;35.30
9837;DHT22;4957;51.412;6.724;2022-07-06T09:49:26;28.10;34.20
9837;DHT22;4957;51.412;6.724;2022-07-06T09:51:55;28.40;34.40
9837;DHT22;4957;51.412;6.724;2022-07-06T09:54:21;28.60;33.60
9837;DHT22;4957;51.412;6.724;2022-07-06T09:56:48;28.80;33.10
9837;DHT22;4957;51.412;6.724;2022-07-06T09:59:19;29.00;32.70
9837;DHT22;4957;51.412;6.724;2022-07-06T10:01:46;29.30;32.70
9837;DHT22;4957;51.412;6.724;2022-07-06T10:04:14;29.60;32.60
9837;DHT22;4957;51.412;6.724;2022-07-06T10:06:40;29.90;32.20
9837;DHT22;4957;51.412;6.724;2022-07-06T10:09:08;30.10;31.80
9837;DHT22;4957;51.412;6.724;2022-07-06T10:11:38;30.40;31.40
9837;DHT22;4957;51.412;6.724;2022-07-06T10:14:05;30.60;31.00
9837;DHT22;4957;51.412;6.724;2022-07-06T10:16:30;30.80;31.20
9837;DHT22;4957;51.412;6.724;2022-07-06T10:18:57;30.90;30.60
9837;DHT22;4957;51.412;6.724;2022-07-06T10:21:24;31.00;30.30
9837;DHT22;4957;51.412;6.724;2022-07-06T10:23:51;31.00;30.10
9837;DHT22;4957;51.412;6.724;2022-07-06T10:26:17;31.10;30.10
9837;DHT22;4957;51.412;6.724;2022-07-06T10:28:44;31.20;30.10
9837;DHT22;4957;51.412;6.724;2022-07-06T10:31:14;31.30;30.30
9837;DHT22;4957;51.412;6.724;2022-07-06T10:33:41;31.40;30.10
9837;DHT22;4957;51.412;6.724;2022-07-06T10:36:08;31.60;29.80
9837;DHT22;4957;51.412;6.724;2022-07-06T10:38:35;31.60;29.60
9837;DHT22;4957;51.412;6.724;2022-07-06T10:41:06;31.70;29.90
9837;DHT22;4957;51.412;6.724;2022-07-06T10:43:34;31.80;29.20
9837;DHT22;4957;51.412;6.724;2022-07-06T10:46:06;31.80;28.90
9837;DHT22;4957;51.412;6.724;2022-07-06T10:48:39;31.80;28.90
9837;DHT22;4957;51.412;6.724;2022-07-06T10:51:06;31.80;28.80
9837;DHT22;4957;51.412;6.724;2022-07-06T10:53:34;31.90;28.80
9837;DHT22;4957;51.412;6.724;2022-07-06T10:56:03;32.00;28.80
9837;DHT22;4957;51.412;6.724;2022-07-06T11:01:11;32.00;28.50
9837;DHT22;4957;51.412;6.724;2022-07-06T11:06:22;32.20;28.50
9837;DHT22;4957;51.412;6.724;2022-07-06T11:08:56;32.40;28.70
9837;DHT22;4957;51.412;6.724;2022-07-06T11:11:26;32.50;28.50
9837;DHT22;4957;51.412;6.724;2022-07-06T11:14:04;32.60;28.20
9837;DHT22;4957;51.412;6.724;2022-07-06T11:16:39;32.70;27.90
9837;DHT22;4957;51.412;6.724;2022-07-06T11:19:09;32.80;27.80
9837;DHT22;4957;51.412;6.724;2022-07-06T11:24:04;33.00;28.00
9837;DHT22;4957;51.412;6.724;2022-07-06T11:26:31;33.00;27.60
9837;DHT22;4957;51.412;6.724;2022-07-06T11:28:58;33.20;27.60
9837;DHT22;4957;51.412;6.724;2022-07-06T11:31:25;33.30;27.40
9837;DHT22;4957;51.412;6.724;2022-07-06T11:33:51;33.30;27.40
9837;DHT22;4957;51.412;6.724;2022-07-06T11:36:18;33.40;27.50
9837;DHT22;4957;51.412;6.724;2022-07-06T11:38:46;33.40;27.50
9837;DHT22;4957;51.412;6.724;2022-07-06T11:41:13;33.40;27.50
9837;DHT22;4957;51.412;6.724;2022-07-06T11:43:42;33.40;27.50
9837;DHT22;4957;51.412;6.724;2022-07-06T11:46:23;33.40;27.20
9837;DHT22;4957;51.412;6.724;2022-07-06T11:48:50;33.40;27.10
9837;DHT22;4957;51.412;6.724;2022-07-06T11:51:16;33.30;27.20
9837;DHT22;4957;51.412;6.724;2022-07-06T11:53:46;33.30;27.30
9837;DHT22;4957;51.412;6.724;2022-07-06T11:56:14;33.30;27.40
9837;DHT22;4957;51.412;6.724;2022-07-06T11:58:41;33.20;27.40
9837;DHT22;4957;51.412;6.724;2022-07-06T12:01:10;33.20;27.10
9837;DHT22;4957;51.412;6.724;2022-07-06T12:03:37;33.10;27.20
9837;DHT22;4957;51.412;6.724;2022-07-06T12:06:06;33.10;27.30
9837;DHT22;4957;51.412;6.724;2022-07-06T12:08:40;33.10;27.10
9837;DHT22;4957;51.412;6.724;2022-07-06T12:11:05;33.00;27.00
9837;DHT22;4957;51.412;6.724;2022-07-06T12:13:36;33.00;27.10
9837;DHT22;4957;51.412;6.724;2022-07-06T12:16:11;33.00;26.90
9837;DHT22;4957;51.412;6.724;2022-07-06T12:18:38;32.90;27.20
9837;DHT22;4957;51.412;6.724;2022-07-06T12:21:08;32.90;27.20
9837;DHT22;4957;51.412;6.724;2022-07-06T12:23:44;32.80;27.20
9837;DHT22;4957;51.412;6.724;2022-07-06T12:26:11;32.80;27.20
9837;DHT22;4957;51.412;6.724;2022-07-06T12:28:37;32.80;27.60
9837;DHT22;4957;51.412;6.724;2022-07-06T12:31:03;32.80;27.20
9837;DHT22;4957;51.412;6.724;2022-07-06T12:33:29;33.00;27.60
9837;DHT22;4957;51.412;6.724;2022-07-06T12:35:56;33.00;27.30
9837;DHT22;4957;51.412;6.724;2022-07-06T12:38:27;33.10;27.40
9837;DHT22;4957;51.412;6.724;2022-07-06T12:40:55;33.10;27.30
9837;DHT22;4957;51.412;6.724;2022-07-06T12:43:37;33.10;27.30
9837;DHT22;4957;51.412;6.724;2022-07-06T12:46:32;33.10;27.10
9837;DHT22;4957;51.412;6.724;2022-07-06T12:48:59;33.20;27.00
9837;DHT22;4957;51.412;6.724;2022-07-06T12:51:25;33.10;27.40
9837;DHT22;4957;51.412;6.724;2022-07-06T12:53:51;33.10;27.30
9837;DHT22;4957;51.412;6.724;2022-07-06T12:56:17;33.10;27.20
9837;DHT22;4957;51.412;6.724;2022-07-06T12:58:58;33.10;27.40
9837;DHT22;4957;51.412;6.724;2022-07-06T13:01:24;33.20;26.90
9837;DHT22;4957;51.412;6.724;2022-07-06T13:03:54;33.30;27.10
9837;DHT22;4957;51.412;6.724;2022-07-06T13:06:31;33.30;27.40
9837;DHT22;4957;51.412;6.724;2022-07-06T13:08:57;33.40;26.70
9837;DHT22;4957;51.412;6.724;2022-07-06T13:11:26;33.50;26.70
9837;DHT22;4957;51.412;6.724;2022-07-06T13:13:52;33.50;26.60
9837;DHT22;4957;51.412;6.724;2022-07-06T13:16:18;33.60;26.40
9837;DHT22;4957;51.412;6.724;2022-07-06T13:18:44;33.70;26.20
9837;DHT22;4957;51.412;6.724;2022-07-06T13:21:09;33.80;26.20
9837;DHT22;4957;51.412;6.724;2022-07-06T13:23:36;33.90;26.00
9837;DHT22;4957;51.412;6.724;2022-07-06T13:26:02;34.00;26.50
9837;DHT22;4957;51.412;6.724;2022-07-06T13:28:28;34.10;26.10
9837;DHT22;4957;51.412;6.724;2022-07-06T13:30:53;34.10;25.90
9837;DHT22;4957;51.412;6.724;2022-07-06T13:33:19;34.20;26.00
9837;DHT22;4957;51.412;6.724;2022-07-06T13:35:45;34.20;26.80
9837;DHT22;4957;51.412;6.724;2022-07-06T13:38:11;34.30;26.00
9837;DHT22;4957;51.412;6.724;2022-07-06T13:40:36;34.30;25.80
9837;DHT22;4957;51.412;6.724;2022-07-06T13:43:02;34.30;25.80
9837;DHT22;4957;51.412;6.724;2022-07-06T13:45:27;34.30;26.00
9837;DHT22;4957;51.412;6.724;2022-07-06T13:47:53;34.30;25.90
9837;DHT22;4957;51.412;6.724;2022-07-06T13:50:19;34.30;26.20
9837;DHT22;4957;51.412;6.724;2022-07-06T13:52:44;34.40;25.80
9837;DHT22;4957;51.412;6.724;2022-07-06T13:55:10;34.50;25.90
9837;DHT22;4957;51.412;6.724;2022-07-06T13:57:36;34.40;25.50
9837;DHT22;4957;51.412;6.724;2022-07-06T14:00:04;34.50;25.60
9837;DHT22;4957;51.412;6.724;2022-07-06T14:02:30;34.50;25.60
9837;DHT22;4957;51.412;6.724;2022-07-06T14:04:55;34.60;25.80
9837;DHT22;4957;51.412;6.724;2022-07-06T14:07:21;34.60;25.80
9837;DHT22;4957;51.412;6.724;2022-07-06T14:09:47;34.60;25.90
9837;DHT22;4957;51.412;6.724;2022-07-06T14:12:17;34.60;25.40
9837;DHT22;4957;51.412;6.724;2022-07-06T14:14:43;34.60;25.90
9837;DHT22;4957;51.412;6.724;2022-07-06T14:17:08;34.50;25.60
9837;DHT22;4957;51.412;6.724;2022-07-06T14:19:34;34.50;25.60
9837;DHT22;4957;51.412;6.724;2022-07-06T14:22:00;34.40;25.10
9837;DHT22;4957;51.412;6.724;2022-07-06T14:24:26;34.40;25.50
9837;DHT22;4957;51.412;6.724;2022-07-06T14:26:51;34.30;25.40
9837;DHT22;4957;51.412;6.724;2022-07-06T14:29:17;34.30;25.40
9837;DHT22;4957;51.412;6.724;2022-07-06T14:31:43;34.20;25.30
9837;DHT22;4957;51.412;6.724;2022-07-06T14:34:08;34.20;25.70
9837;DHT22;4957;51.412;6.724;2022-07-06T14:36:35;34.20;25.70
9837;DHT22;4957;51.412;6.724;2022-07-06T14:39:03;34.10;25.40
9837;DHT22;4957;51.412;6.724;2022-07-06T14:41:29;34.10;26.10
9837;DHT22;4957;51.412;6.724;2022-07-06T14:43:55;34.10;25.80
9837;DHT22;4957;51.412;6.724;2022-07-06T14:46:21;34.00;25.60
9837;DHT22;4957;51.412;6.724;2022-07-06T14:48:47;34.00;25.90
9837;DHT22;4957;51.412;6.724;2022-07-06T14:51:12;33.90;25.60
9837;DHT22;4957;51.412;6.724;2022-07-06T14:53:38;33.80;25.80
9837;DHT22;4957;51.412;6.724;2022-07-06T14:56:04;33.80;25.90
9837;DHT22;4957;51.412;6.724;2022-07-06T14:58:29;33.80;25.90
9837;DHT22;4957;51.412;6.724;2022-07-06T15:00:55;33.90;25.60
9837;DHT22;4957;51.412;6.724;2022-07-06T15:03:21;33.90;25.50
9837;DHT22;4957;51.412;6.724;2022-07-06T15:05:46;33.80;25.50
9837;DHT22;4957;51.412;6.724;2022-07-06T15:08:14;33.80;26.00
9837;DHT22;4957;51.412;6.724;2022-07-06T15:10:41;33.80;26.00
9837;DHT22;4957;51.412;6.724;2022-07-06T15:13:07;33.80;26.10
9837;DHT22;4957;51.412;6.724;2022-07-06T15:15:33;33.80;26.50
9837;DHT22;4957;51.412;6.724;2022-07-06T15:17:59;33.80;25.90
9837;DHT22;4957;51.412;6.724;2022-07-06T15:20:24;33.80;25.70
9837;DHT22;4957;51.412;6.724;2022-07-06T15:22:50;33.80;25.60
9837;DHT22;4957;51.412;6.724;2022-07-06T15:25:16;33.80;25.60
9837;DHT22;4957;51.412;6.724;2022-07-06T15:27:41;33.80;25.80
9837;DHT22;4957;51.412;6.724;2022-07-06T15:30:07;33.80;26.40
9837;DHT22;4957;51.412;6.724;2022-07-06T15:32:33;33.90;26.10
9837;DHT22;4957;51.412;6.724;2022-07-06T15:34:59;33.90;26.10
9837;DHT22;4957;51.412;6.724;2022-07-06T15:37:24;34.00;26.50
9837;DHT22;4957;51.412;6.724;2022-07-06T15:39:50;34.10;26.10
9837;DHT22;4957;51.412;6.724;2022-07-06T15:42:16;34.10;25.60
9837;DHT22;4957;51.412;6.724;2022-07-06T15:44:41;34.10;25.60
9837;DHT22;4957;51.412;6.724;2022-07-06T15:47:07;34.10;25.60
9837;DHT22;4957;51.412;6.724;2022-07-06T15:49:33;34.10;25.50
9837;DHT22;4957;51.412;6.724;2022-07-06T15:51:59;34.10;25.60
9837;DHT22;4957;51.412;6.724;2022-07-06T15:54:25;34.00;25.80
9837;DHT22;4957;51.412;6.724;2022-07-06T15:56:51;34.00;26.00
9837;DHT22;4957;51.412;6.724;2022-07-06T15:59:16;34.00;26.10
9837;DHT22;4957;51.412;6.724;2022-07-06T16:01:42;34.10;26.10
9837;DHT22;4957;51.412;6.724;2022-07-06T16:04:08;34.10;26.20
9837;DHT22;4957;51.412;6.724;2022-07-06T16:06:35;34.10;26.10
9837;DHT22;4957;51.412;6.724;2022-07-06T16:09:01;34.10;26.30